Time;durP1;ratioP1;P1;durP2;ratioP2;P2;SDS_P1;SDS_P2;PMS_P1;PMS_P2;Temp;Humidity;BMP_temperature;BMP_pressure;BME280_temperature;BME280_humidity;BME280_pressure;Samples;Min_cycle;Max_cycle;Signal;HPM_P1;HPM_P2
2022/01/30 00:00:24;;;;;;;19.10;3.40;;;5.90;99.90;;;;;;4990129;28;20188;-71
2022/01/30 00:02:51;;;;;;;18.40;3.80;;;5.80;99.90;;;;;;4973674;28;20273;-71
2022/01/30 00:05:17;;;;;;;15.27;3.40;;;5.80;99.90;;;;;;5001407;28;20188;-71
2022/01/30 00:07:43;;;;;;;20.60;4.50;;;5.70;99.90;;;;;;4999534;28;20197;-70
2022/01/30 00:10:11;;;;;;;13.47;3.17;;;5.70;99.90;;;;;;4996456;28;20192;-69
2022/01/30 00:12:58;;;;;;;17.87;4.27;;;5.80;99.90;;;;;;4994964;28;20201;-70
2022/01/30 00:15:37;;;;;;;12.27;3.90;;;5.80;99.90;;;;;;4998477;28;20176;-82
2022/01/30 00:18:20;;;;;;;14.10;3.60;;;5.80;99.90;;;;;;4961223;28;20213;-81
2022/01/30 00:20:58;;;;;;;12.77;4.43;;;6.20;99.90;;;;;;4993804;28;20201;-77
2022/01/30 00:23:26;;;;;;;14.67;4.63;;;6.10;99.90;;;;;;4956682;28;20309;-73
2022/01/30 00:25:54;;;;;;;14.97;3.53;;;6.00;99.90;;;;;;4986513;28;20194;-72
2022/01/30 00:28:23;;;;;;;15.83;3.27;;;6.00;99.90;;;;;;4989106;28;20208;-74
2022/01/30 00:30:49;;;;;;;10.10;3.03;;;6.00;99.90;;;;;;4993408;28;20192;-74
2022/01/30 00:33:15;;;;;;;14.23;3.90;;;6.00;99.90;;;;;;4994929;28;20545;-75
2022/01/30 00:35:41;;;;;;;13.47;3.33;;;6.10;99.90;;;;;;4994815;28;20541;-79
2022/01/30 00:38:15;;;;;;;17.83;4.63;;;6.10;99.90;;;;;;4997640;28;20261;-76
2022/01/30 00:40:41;;;;;;;23.63;4.83;;;6.10;99.90;;;;;;4986685;28;20240;-73
2022/01/30 00:43:06;;;;;;;14.47;4.10;;;6.20;99.90;;;;;;4994726;28;20255;-75
2022/01/30 00:45:32;;;;;;;13.90;3.67;;;6.20;99.90;;;;;;4990857;28;20186;-75
2022/01/30 00:47:58;;;;;;;12.53;3.17;;;6.20;99.90;;;;;;4992635;28;20204;-73
2022/01/30 00:50:23;;;;;;;13.20;3.03;;;6.20;99.90;;;;;;4993796;28;20275;-78
2022/01/30 00:52:53;;;;;;;9.87;3.03;;;6.10;99.90;;;;;;4984480;28;20201;-71
2022/01/30 00:55:19;;;;;;;12.27;3.13;;;6.00;99.90;;;;;;4985571;28;20188;-72
2022/01/30 00:57:45;;;;;;;10.60;4.23;;;5.90;99.90;;;;;;4988626;28;20234;-73
2022/01/30 01:00:11;;;;;;;13.07;3.57;;;5.90;99.90;;;;;;4978099;28;20209;-72
2022/01/30 01:02:37;;;;;;;18.27;4.60;;;5.90;99.90;;;;;;5014845;28;20204;-71
2022/01/30 01:05:05;;;;;;;17.80;3.70;;;5.90;99.90;;;;;;4984393;28;20230;-73
2022/01/30 01:07:33;;;;;;;16.93;4.73;;;5.90;99.90;;;;;;4983294;28;20587;-72
2022/01/30 01:10:11;;;;;;;20.30;4.07;;;6.00;99.90;;;;;;4978335;28;20181;-72
2022/01/30 01:12:56;;;;;;;14.17;4.10;;;6.00;99.90;;;;;;4982392;28;20205;-73
2022/01/30 01:23:19;;;;;;;13.73;3.80;;;6.20;99.90;;;;;;4980720;28;20207;-71
2022/01/30 01:23:46;;;;;;;20.70;4.83;;;6.20;99.90;;;;;;4978564;28;20303;-72
2022/01/30 01:26:13;;;;;;;16.53;4.03;;;6.30;99.90;;;;;;4986273;28;20217;-72
2022/01/30 01:28:39;;;;;;;12.83;3.90;;;6.30;99.90;;;;;;4977043;28;20193;-73
2022/01/30 01:31:06;;;;;;;15.23;3.53;;;6.30;99.90;;;;;;4981989;28;20847;-76
2022/01/30 01:33:47;;;;;;;16.20;5.27;;;6.30;99.90;;;;;;4978608;28;20592;-72
2022/01/30 01:36:13;;;;;;;20.53;5.33;;;6.30;99.90;;;;;;4979850;28;20252;-74
2022/01/30 01:38:39;;;;;;;16.07;4.10;;;6.30;99.90;;;;;;4984635;28;20241;-73
2022/01/30 01:41:04;;;;;;;14.53;5.37;;;6.40;99.90;;;;;;4981231;28;20988;-72
2022/01/30 01:43:30;;;;;;;16.20;5.00;;;6.30;99.90;;;;;;4985869;28;20225;-74
2022/01/30 01:45:58;;;;;;;16.97;4.13;;;6.30;99.90;;;;;;4979079;28;20205;-74
2022/01/30 01:48:24;;;;;;;17.17;4.57;;;6.40;99.90;;;;;;4982839;28;20288;-74
2022/01/30 01:50:54;;;;;;;15.80;4.10;;;6.30;99.90;;;;;;4986649;28;20653;-74
2022/01/30 01:53:23;;;;;;;15.37;4.33;;;6.40;99.90;;;;;;4991833;28;20204;-73
2022/01/30 01:55:49;;;;;;;16.00;4.63;;;6.40;99.90;;;;;;4988463;28;20196;-73
2022/01/30 01:58:14;;;;;;;11.83;3.37;;;6.40;99.90;;;;;;4986526;28;20209;-81
2022/01/30 02:00:40;;;;;;;13.47;3.77;;;6.50;99.90;;;;;;4989147;28;20921;-72
2022/01/30 02:03:06;;;;;;;14.23;3.87;;;6.60;99.90;;;;;;4995034;28;20246;-73
2022/01/30 02:05:34;;;;;;;17.53;3.57;;;6.50;99.90;;;;;;4986344;28;20854;-70
2022/01/30 02:08:27;;;;;;;14.23;4.30;;;6.40;99.90;;;;;;4978655;28;20533;-67
2022/01/30 02:11:01;;;;;;;11.67;3.77;;;6.40;99.90;;;;;;4981020;28;20182;-71
2022/01/30 02:14:11;;;;;;;14.90;3.57;;;6.40;99.90;;;;;;4978362;28;20214;-69
2022/01/30 02:27:23;;;;;;;15.07;4.07;;;6.90;99.90;;;;;;5001236;28;20572;-62
2022/01/30 02:29:49;;;;;;;16.73;4.53;;;7.10;99.90;;;;;;4989144;28;20262;-63
2022/01/30 02:32:15;;;;;;;16.60;4.30;;;7.00;99.90;;;;;;4996475;28;20189;-73
2022/01/30 02:34:41;;;;;;;14.83;4.23;;;6.90;99.90;;;;;;4964809;28;20212;-71
2022/01/30 02:37:06;;;;;;;12.77;3.33;;;6.70;99.90;;;;;;4993546;28;20216;-71
2022/01/30 02:39:33;;;;;;;15.80;4.97;;;6.50;99.90;;;;;;4984032;28;20205;-72
2022/01/30 02:41:58;;;;;;;14.93;3.67;;;6.50;99.90;;;;;;4991876;28;20220;-71
2022/01/30 02:44:31;;;;;;;13.83;4.47;;;6.40;99.90;;;;;;4982439;28;20224;-68
2022/01/30 02:47:00;;;;;;;10.57;3.40;;;6.40;99.90;;;;;;4981742;28;20482;-68
2022/01/30 02:49:40;;;;;;;13.53;4.07;;;6.40;99.90;;;;;;4994070;28;20257;-68
2022/01/30 02:52:08;;;;;;;21.03;4.17;;;6.30;99.90;;;;;;4984466;28;20292;-68
2022/01/30 02:54:33;;;;;;;17.17;3.77;;;6.40;99.90;;;;;;4983396;28;20216;-67
2022/01/30 02:56:59;;;;;;;18.10;6.03;;;6.30;99.90;;;;;;5000083;28;20968;-67
2022/01/30 02:59:25;;;;;;;18.73;6.90;;;6.30;99.90;;;;;;4981683;28;20204;-67
2022/01/30 03:01:51;;;;;;;17.00;4.20;;;6.30;99.90;;;;;;4995877;28;20201;-69
2022/01/30 03:04:17;;;;;;;17.30;3.93;;;6.30;99.90;;;;;;4992003;28;20216;-67
2022/01/30 03:06:44;;;;;;;21.43;5.63;;;6.30;99.90;;;;;;4992992;28;20203;-67
2022/01/30 03:09:10;;;;;;;16.43;3.90;;;6.20;99.90;;;;;;4991740;28;20196;-68
2022/01/30 03:11:37;;;;;;;18.03;4.20;;;6.20;99.90;;;;;;4997573;28;20207;-68
2022/01/30 03:14:04;;;;;;;13.87;4.17;;;6.20;99.90;;;;;;4998566;28;20213;-68
2022/01/30 03:16:29;;;;;;;14.87;4.63;;;6.20;99.90;;;;;;5001360;28;20232;-67
2022/01/30 03:18:55;;;;;;;16.53;4.20;;;6.10;99.90;;;;;;4988458;28;20783;-68
2022/01/30 03:21:21;;;;;;;7.40;2.40;;;6.00;99.90;;;;;;4987545;28;20580;-67
2022/01/30 03:23:47;;;;;;;15.70;3.67;;;6.00;99.90;;;;;;4987600;28;20393;-67
2022/01/30 03:26:14;;;;;;;11.57;3.50;;;5.80;99.90;;;;;;4995355;28;20225;-68
2022/01/30 03:28:41;;;;;;;14.73;4.20;;;5.80;99.90;;;;;;4985965;28;20223;-69
2022/01/30 03:31:10;;;;;;;18.30;4.33;;;5.70;99.90;;;;;;4991769;28;20555;-69
2022/01/30 03:33:36;;;;;;;16.40;3.53;;;5.70;99.90;;;;;;4992197;28;20242;-68
2022/01/30 03:36:02;;;;;;;14.27;4.07;;;5.80;99.90;;;;;;4996835;28;20292;-69
2022/01/30 03:38:28;;;;;;;16.10;3.90;;;5.80;99.90;;;;;;4994222;28;20250;-72
2022/01/30 03:40:54;;;;;;;21.73;4.70;;;5.80;99.90;;;;;;4984201;28;20703;-67
2022/01/30 03:43:20;;;;;;;11.13;3.63;;;5.90;99.90;;;;;;4983131;28;20212;-68
2022/01/30 03:45:47;;;;;;;14.30;4.63;;;5.90;99.90;;;;;;4966615;28;20238;-66
2022/01/30 03:48:14;;;;;;;18.53;3.97;;;5.90;99.90;;;;;;4982057;28;21170;-68
2022/01/30 03:50:43;;;;;;;22.53;5.73;;;5.90;99.90;;;;;;4982051;28;20715;-68
2022/01/30 03:53:10;;;;;;;16.20;3.93;;;5.90;99.90;;;;;;4981980;28;20312;-69
2022/01/30 03:55:35;;;;;;;15.63;5.07;;;5.90;99.90;;;;;;4986056;28;20189;-70
2022/01/30 03:58:01;;;;;;;18.77;4.17;;;5.90;99.90;;;;;;4986885;28;20224;-70
2022/01/30 04:00:27;;;;;;;21.80;5.27;;;5.80;99.90;;;;;;4992424;28;20218;-70
2022/01/30 04:02:53;;;;;;;18.63;4.70;;;5.50;99.90;;;;;;4969111;28;20193;-69
2022/01/30 04:05:19;;;;;;;15.07;3.83;;;5.10;99.90;;;;;;4986224;28;20208;-69
2022/01/30 04:07:46;;;;;;;17.53;5.10;;;4.80;99.90;;;;;;4985893;28;20269;-69
2022/01/30 04:10:12;;;;;;;15.10;4.53;;;4.70;99.90;;;;;;4982444;28;20693;-69
2022/01/30 04:12:38;;;;;;;20.73;4.57;;;4.70;99.90;;;;;;4980436;28;20287;-70
2022/01/30 04:15:04;;;;;;;14.70;3.67;;;4.60;99.90;;;;;;4978877;28;20209;-73
2022/01/30 04:17:30;;;;;;;15.13;4.97;;;4.60;99.90;;;;;;4983700;28;20300;-70
2022/01/30 04:19:55;;;;;;;14.40;4.60;;;4.70;99.90;;;;;;4983152;28;20682;-68
2022/01/30 04:22:22;;;;;;;15.80;4.43;;;4.70;99.90;;;;;;5003932;28;20215;-69
2022/01/30 04:24:47;;;;;;;15.40;3.80;;;4.70;99.90;;;;;;4995142;28;20213;-70
2022/01/30 04:27:13;;;;;;;10.37;4.23;;;4.70;99.90;;;;;;4999163;28;20849;-69
2022/01/30 04:29:39;;;;;;;19.53;4.57;;;4.80;99.90;;;;;;4987931;28;20586;-68
2022/01/30 04:32:05;;;;;;;20.93;4.77;;;4.90;99.90;;;;;;5001031;28;20199;-69
2022/01/30 04:34:31;;;;;;;19.37;3.73;;;5.00;99.90;;;;;;4987613;28;20241;-68
2022/01/30 04:57:53;;;;;;;19.60;4.77;;;5.40;99.90;;;;;;4994704;28;20630;-67
2022/01/30 05:03:25;;;;;;;18.80;4.43;;;5.40;99.90;;;;;;5001225;28;20200;-68
2022/01/30 05:06:05;;;;;;;17.57;4.47;;;5.30;99.90;;;;;;4996282;28;20205;-68
2022/01/30 05:08:30;;;;;;;13.03;4.63;;;5.30;99.90;;;;;;5045007;28;20204;-70
2022/01/30 05:10:56;;;;;;;16.93;3.70;;;5.20;99.90;;;;;;5001944;28;20184;-69
2022/01/30 05:13:25;;;;;;;20.93;4.33;;;5.20;99.90;;;;;;4995846;28;20561;-68
2022/01/30 05:15:51;;;;;;;16.17;4.00;;;5.20;99.90;;;;;;4993218;28;20189;-69
2022/01/30 05:18:23;;;;;;;15.60;3.83;;;5.20;99.90;;;;;;4994194;28;20211;-69
2022/01/30 05:20:48;;;;;;;11.70;3.30;;;5.20;99.90;;;;;;4988604;28;20218;-67
2022/01/30 05:23:16;;;;;;;12.53;4.10;;;5.30;99.90;;;;;;4985764;28;21003;-67
2022/01/30 05:25:46;;;;;;;16.50;3.70;;;5.30;99.90;;;;;;4993974;28;20318;-68
2022/01/30 05:28:12;;;;;;;17.47;4.20;;;5.40;99.90;;;;;;4999058;28;20262;-68
2022/01/30 05:30:38;;;;;;;18.50;3.83;;;5.40;99.90;;;;;;4994885;28;20669;-70
2022/01/30 05:33:04;;;;;;;14.17;4.00;;;5.40;99.90;;;;;;4992974;28;20849;-69
2022/01/30 05:35:29;;;;;;;14.33;4.43;;;5.40;99.90;;;;;;4990547;28;20269;-69
2022/01/30 05:37:55;;;;;;;16.03;3.80;;;5.50;99.90;;;;;;4998830;28;20200;-68
2022/01/30 05:40:22;;;;;;;18.37;3.03;;;5.50;99.90;;;;;;4983081;28;20227;-74
2022/01/30 05:42:48;;;;;;;19.83;4.30;;;5.50;99.90;;;;;;4978634;28;20281;-68
2022/01/30 05:45:21;;;;;;;11.67;3.37;;;5.50;99.90;;;;;;4990020;28;20266;-69
2022/01/30 05:47:54;;;;;;;7.63;2.70;;;5.50;99.90;;;;;;4981162;28;20217;-68
2022/01/30 05:50:21;;;;;;;14.43;4.83;;;5.40;99.90;;;;;;4988740;28;20199;-68
2022/01/30 05:52:46;;;;;;;19.67;5.17;;;5.30;99.90;;;;;;4995623;28;20232;-68
2022/01/30 05:55:12;;;;;;;23.17;5.20;;;5.20;99.90;;;;;;4983486;28;20236;-69
2022/01/30 05:57:37;;;;;;;14.97;4.50;;;5.10;99.90;;;;;;4998263;28;20719;-68
2022/01/30 06:00:05;;;;;;;14.87;4.97;;;5.10;99.90;;;;;;4990409;28;20196;-69
2022/01/30 06:02:30;;;;;;;11.00;3.37;;;5.20;99.90;;;;;;4980049;28;20764;-70
2022/01/30 06:04:56;;;;;;;16.37;5.20;;;5.20;99.90;;;;;;4987410;28;20226;-69
2022/01/30 06:07:27;;;;;;;14.87;5.07;;;5.40;99.90;;;;;;5000975;28;20265;-68
2022/01/30 06:09:53;;;;;;;17.90;3.73;;;5.50;99.90;;;;;;4991063;28;20228;-68
2022/01/30 06:12:18;;;;;;;18.60;4.10;;;5.50;99.90;;;;;;4991171;28;20600;-68
2022/01/30 06:14:45;;;;;;;13.43;5.23;;;5.50;99.90;;;;;;4989682;28;20261;-68
2022/01/30 06:17:11;;;;;;;16.33;4.00;;;5.50;99.90;;;;;;4997621;28;20228;-69
2022/01/30 06:19:36;;;;;;;17.37;4.57;;;5.60;99.90;;;;;;4987137;28;20240;-68
2022/01/30 06:22:02;;;;;;;15.87;4.23;;;5.60;99.90;;;;;;4995439;28;20196;-67
2022/01/30 06:24:27;;;;;;;16.33;3.57;;;5.60;99.90;;;;;;4983021;28;20583;-68
2022/01/30 06:26:53;;;;;;;17.93;3.50;;;5.60;99.90;;;;;;4988514;28;20192;-70
2022/01/30 06:29:18;;;;;;;21.80;6.67;;;5.60;99.90;;;;;;4990220;28;20201;-70
2022/01/30 06:31:44;;;;;;;19.07;5.57;;;5.60;99.90;;;;;;4999140;28;20193;-68
2022/01/30 06:34:09;;;;;;;19.17;4.17;;;5.50;99.90;;;;;;4990714;28;20716;-67
2022/01/30 06:36:34;;;;;;;19.00;5.60;;;5.50;99.90;;;;;;4996217;28;20213;-69
2022/01/30 06:39:00;;;;;;;16.23;4.30;;;5.50;99.90;;;;;;4993739;28;20295;-69
2022/01/30 06:41:25;;;;;;;16.47;4.43;;;5.50;99.90;;;;;;4991851;28;20328;-69
2022/01/30 06:43:51;;;;;;;15.30;5.50;;;5.60;99.90;;;;;;4990680;28;20756;-69
2022/01/30 06:46:16;;;;;;;13.90;3.93;;;5.60;99.90;;;;;;4987744;28;20184;-67
2022/01/30 06:48:42;;;;;;;18.43;5.03;;;5.70;99.90;;;;;;4990248;28;20197;-66
2022/01/30 06:51:08;;;;;;;17.73;4.17;;;5.70;99.90;;;;;;4998052;28;20555;-67
2022/01/30 06:53:33;;;;;;;11.77;3.00;;;5.70;99.90;;;;;;4990355;28;20201;-68
2022/01/30 06:55:59;;;;;;;12.67;4.83;;;5.70;99.90;;;;;;4990542;28;20188;-66
2022/01/30 06:58:24;;;;;;;14.63;3.60;;;5.70;99.90;;;;;;4993936;28;20209;-69
2022/01/30 07:00:50;;;;;;;12.03;3.43;;;5.80;99.90;;;;;;4994598;28;20275;-69
2022/01/30 07:03:16;;;;;;;18.07;5.20;;;5.80;99.90;;;;;;4997465;28;20307;-68
2022/01/30 07:05:41;;;;;;;15.63;4.93;;;5.80;99.90;;;;;;4973159;28;20248;-68
2022/01/30 07:08:07;;;;;;;15.83;4.90;;;6.00;99.90;;;;;;4991815;28;20530;-68
2022/01/30 07:10:32;;;;;;;16.80;3.53;;;6.00;99.90;;;;;;4991056;28;20191;-67
2022/01/30 07:12:58;;;;;;;15.00;3.93;;;6.00;99.90;;;;;;4984503;28;20189;-68
2022/01/30 07:15:23;;;;;;;28.73;4.53;;;6.00;99.90;;;;;;5003064;28;20186;-67
2022/01/30 07:17:49;;;;;;;19.67;4.37;;;6.00;99.90;;;;;;4993457;28;20279;-67
2022/01/30 07:20:14;;;;;;;17.77;4.43;;;6.00;99.90;;;;;;4991209;28;20292;-67
2022/01/30 07:22:40;;;;;;;20.60;6.37;;;6.00;99.90;;;;;;4988693;28;20196;-68
2022/01/30 07:25:07;;;;;;;16.33;3.77;;;6.00;99.90;;;;;;4987160;28;20232;-68
2022/01/30 07:27:37;;;;;;;15.47;3.67;;;6.00;99.90;;;;;;4991099;28;20228;-68
2022/01/30 07:30:06;;;;;;;12.57;4.87;;;6.00;99.90;;;;;;4986504;28;20268;-68
2022/01/30 07:32:32;;;;;;;18.80;4.27;;;6.00;99.90;;;;;;4988490;28;20204;-69
2022/01/30 07:34:58;;;;;;;13.33;4.03;;;6.00;99.90;;;;;;4982557;28;20677;-68
2022/01/30 07:37:24;;;;;;;12.97;4.57;;;6.00;99.90;;;;;;4987444;28;20219;-68
2022/01/30 07:39:49;;;;;;;17.67;4.30;;;6.00;99.90;;;;;;4981728;28;20333;-69
2022/01/30 07:42:15;;;;;;;12.77;3.80;;;6.00;99.90;;;;;;4991920;28;20240;-69
2022/01/30 07:44:41;;;;;;;16.60;4.47;;;6.00;99.90;;;;;;4983037;28;20229;-67
2022/01/30 07:47:06;;;;;;;18.67;4.30;;;6.00;99.90;;;;;;4989135;28;20196;-68
2022/01/30 07:49:32;;;;;;;9.57;3.10;;;6.10;99.90;;;;;;4990610;28;20299;-69
2022/01/30 07:51:58;;;;;;;13.47;3.17;;;6.10;99.90;;;;;;4991973;28;20192;-69
2022/01/30 07:54:23;;;;;;;16.13;3.60;;;6.00;99.90;;;;;;4981855;28;20208;-68
2022/01/30 07:56:49;;;;;;;15.47;4.67;;;6.00;99.90;;;;;;4998457;28;20206;-73
2022/01/30 07:59:14;;;;;;;23.30;4.20;;;6.10;99.90;;;;;;4996266;28;20208;-70
2022/01/30 08:01:40;;;;;;;14.70;4.30;;;6.20;99.90;;;;;;4999715;28;20679;-72
2022/01/30 08:04:08;;;;;;;8.50;3.13;;;6.20;99.90;;;;;;4974629;28;20204;-72
2022/01/30 08:06:34;;;;;;;13.33;3.40;;;6.20;99.90;;;;;;4991301;28;20189;-71
2022/01/30 08:09:00;;;;;;;17.13;3.97;;;6.10;99.90;;;;;;4980479;28;20200;-72
2022/01/30 08:11:26;;;;;;;14.20;3.27;;;6.10;99.90;;;;;;4983202;28;20195;-73
2022/01/30 08:13:51;;;;;;;13.50;3.30;;;6.10;99.90;;;;;;4980015;28;20213;-73
2022/01/30 08:16:19;;;;;;;11.63;4.07;;;6.10;99.90;;;;;;4986667;28;20219;-72
2022/01/30 08:18:45;;;;;;;14.10;4.40;;;6.20;99.90;;;;;;4982716;28;20205;-75
2022/01/30 08:21:10;;;;;;;13.77;3.77;;;6.20;99.90;;;;;;4982760;28;20241;-72
2022/01/30 08:23:36;;;;;;;17.57;4.37;;;6.20;99.90;;;;;;4986927;28;20254;-78
2022/01/30 08:26:02;;;;;;;15.23;4.73;;;6.20;99.90;;;;;;4967441;28;20185;-74
2022/01/30 08:28:27;;;;;;;15.00;4.83;;;6.20;99.90;;;;;;4984952;28;20727;-75
2022/01/30 08:30:53;;;;;;;15.00;4.73;;;6.20;99.90;;;;;;4981423;28;20184;-75
2022/01/30 08:33:19;;;;;;;16.90;4.23;;;6.20;99.90;;;;;;4986693;28;20207;-76
2022/01/30 08:35:45;;;;;;;16.10;4.03;;;6.20;99.90;;;;;;4979312;28;20213;-70
2022/01/30 08:38:13;;;;;;;18.80;4.40;;;6.20;99.90;;;;;;4986516;28;20193;-69
2022/01/30 08:40:38;;;;;;;19.33;5.17;;;6.20;99.90;;;;;;4981729;28;20221;-72
2022/01/30 08:43:05;;;;;;;17.07;5.27;;;6.20;99.90;;;;;;4982769;28;20618;-71
2022/01/30 08:45:30;;;;;;;16.20;3.80;;;6.20;99.90;;;;;;4985740;28;20181;-73
2022/01/30 08:47:56;;;;;;;16.23;4.10;;;6.30;99.90;;;;;;4979118;28;20406;-72
2022/01/30 08:50:22;;;;;;;20.53;5.00;;;6.20;99.90;;;;;;4984512;28;20235;-77
2022/01/30 08:52:48;;;;;;;15.07;3.53;;;6.20;99.90;;;;;;4988009;28;20320;-74
2022/01/30 08:55:15;;;;;;;24.60;5.73;;;6.30;99.90;;;;;;4976963;28;20209;-74
2022/01/30 08:57:40;;;;;;;20.93;4.27;;;6.30;99.90;;;;;;4980919;28;20201;-72
2022/01/30 09:00:10;;;;;;;14.37;2.70;;;6.30;99.90;;;;;;4982764;28;20210;-79
2022/01/30 09:02:37;;;;;;;17.33;4.57;;;6.30;99.90;;;;;;4983074;28;20205;-78
2022/01/30 09:05:06;;;;;;;16.00;4.97;;;6.30;99.90;;;;;;4984797;28;20261;-83
2022/01/30 09:07:33;;;;;;;14.00;4.20;;;6.40;99.90;;;;;;4985398;28;20273;-78
2022/01/30 09:09:58;;;;;;;15.83;4.47;;;6.40;99.90;;;;;;4984801;28;20201;-78
2022/01/30 09:12:25;;;;;;;15.53;3.40;;;6.40;99.90;;;;;;4995058;28;20193;-71
2022/01/30 09:14:50;;;;;;;17.27;4.00;;;6.40;99.90;;;;;;4985190;28;20262;-72
2022/01/30 09:17:16;;;;;;;11.43;4.20;;;6.40;99.90;;;;;;4979265;28;20281;-71
2022/01/30 09:19:44;;;;;;;24.73;4.97;;;6.40;99.90;;;;;;4986900;28;20700;-71
2022/01/30 09:22:11;;;;;;;19.07;4.67;;;6.40;99.90;;;;;;4979145;28;20181;-71
2022/01/30 09:24:37;;;;;;;10.40;3.27;;;6.50;99.90;;;;;;4975603;28;20585;-73
2022/01/30 09:27:04;;;;;;;15.60;3.87;;;6.50;99.90;;;;;;4979873;28;20227;-71
2022/01/30 09:29:30;;;;;;;17.80;4.67;;;6.50;99.90;;;;;;4978928;28;20197;-70
2022/01/30 09:31:57;;;;;;;16.10;4.10;;;6.50;99.90;;;;;;5000565;28;20260;-70
2022/01/30 09:34:22;;;;;;;16.80;4.37;;;6.50;99.90;;;;;;4990191;28;20248;-70
2022/01/30 09:36:48;;;;;;;16.50;4.33;;;6.50;99.90;;;;;;4993478;28;20220;-71
2022/01/30 09:39:14;;;;;;;21.60;3.67;;;6.50;99.90;;;;;;4998889;28;20330;-69
2022/01/30 09:41:42;;;;;;;12.60;3.53;;;6.70;99.90;;;;;;4990809;28;20509;-70
2022/01/30 09:44:11;;;;;;;16.70;7.03;;;6.70;99.90;;;;;;4979601;28;20310;-68
2022/01/30 09:46:42;;;;;;;18.87;5.17;;;6.70;99.90;;;;;;5000387;28;20196;-70
2022/01/30 09:49:08;;;;;;;10.70;3.93;;;6.60;99.90;;;;;;4992251;28;20208;-69
2022/01/30 09:51:35;;;;;;;15.53;4.73;;;6.60;99.90;;;;;;4996667;28;20279;-69
2022/01/30 09:54:02;;;;;;;18.50;5.03;;;6.60;99.90;;;;;;4980658;28;20346;-70
2022/01/30 09:56:27;;;;;;;21.27;3.30;;;6.60;99.90;;;;;;4988230;28;20197;-71
2022/01/30 09:58:53;;;;;;;14.90;4.70;;;6.60;99.90;;;;;;4979537;28;20208;-69
2022/01/30 10:01:18;;;;;;;14.97;4.23;;;6.60;99.90;;;;;;4976581;28;20201;-69
2022/01/30 10:03:47;;;;;;;19.10;4.17;;;6.60;99.90;;;;;;4981982;28;20208;-70
2022/01/30 10:06:18;;;;;;;15.57;5.30;;;6.60;99.90;;;;;;4977151;28;20679;-69
2022/01/30 10:08:46;;;;;;;21.87;4.63;;;6.60;99.90;;;;;;4980807;28;20742;-69
2022/01/30 10:11:35;;;;;;;19.97;4.33;;;6.60;99.90;;;;;;4984390;28;20208;-69
2022/01/30 10:14:06;;;;;;;15.47;5.53;;;6.60;99.90;;;;;;4977050;28;20273;-72
2022/01/30 10:16:36;;;;;;;20.17;3.57;;;6.60;99.90;;;;;;4978496;28;20205;-70
2022/01/30 10:19:10;;;;;;;19.87;4.87;;;6.50;99.90;;;;;;4983715;28;20209;-71
2022/01/30 10:21:36;;;;;;;22.67;4.77;;;6.60;99.90;;;;;;4984180;28;20201;-70
2022/01/30 10:24:26;;;;;;;19.97;4.57;;;6.50;99.90;;;;;;4977923;28;20239;-75
2022/01/30 10:26:54;;;;;;;17.77;4.70;;;6.50;99.90;;;;;;4979342;28;20185;-76
2022/01/30 10:29:22;;;;;;;22.17;5.17;;;6.50;99.90;;;;;;4985204;28;20678;-75
2022/01/30 10:32:05;;;;;;;25.13;5.63;;;6.50;99.90;;;;;;4976510;28;20662;-77
2022/01/30 10:34:32;;;;;;;18.10;5.87;;;6.50;99.90;;;;;;4973397;28;20192;-76
2022/01/30 10:37:22;;;;;;;12.83;4.20;;;6.50;99.90;;;;;;4974871;28;20239;-78
2022/01/30 10:39:57;;;;;;;26.77;6.17;;;6.50;99.90;;;;;;4970049;28;20249;-77
2022/01/30 10:42:39;;;;;;;22.23;5.20;;;6.50;99.90;;;;;;4991599;28;20422;-78
2022/01/30 10:45:12;;;;;;;15.87;4.30;;;6.50;99.90;;;;;;4982269;28;20572;-78
2022/01/30 10:47:39;;;;;;;12.33;4.70;;;6.50;99.90;;;;;;4973909;28;20827;-77
2022/01/30 10:50:17;;;;;;;15.13;5.43;;;6.60;99.90;;;;;;4978707;28;20269;-77
2022/01/30 10:52:54;;;;;;;17.63;5.00;;;6.50;99.90;;;;;;4962121;28;20556;-76
2022/01/30 10:55:39;;;;;;;14.13;4.53;;;6.50;99.90;;;;;;4978400;28;20696;-79
2022/01/30 10:58:09;;;;;;;17.13;5.03;;;6.60;99.90;;;;;;4982383;28;20258;-76
2022/01/30 11:00:41;;;;;;;16.60;4.27;;;6.60;99.90;;;;;;4988889;28;20264;-77
2022/01/30 11:03:09;;;;;;;23.80;5.87;;;6.60;99.90;;;;;;4985474;28;20203;-75
2022/01/30 11:05:58;;;;;;;18.83;4.00;;;6.60;99.90;;;;;;4977016;28;20197;-76
2022/01/30 11:08:30;;;;;;;20.13;4.83;;;6.60;99.90;;;;;;4976016;28;20176;-76
2022/01/30 11:10:59;;;;;;;15.87;5.13;;;6.60;99.90;;;;;;4978016;28;20231;-75
2022/01/30 11:13:32;;;;;;;23.87;5.43;;;6.60;99.90;;;;;;4980425;28;20966;-76
2022/01/30 11:18:50;;;;;;;17.13;5.03;;;6.60;99.90;;;;;;4977896;28;20199;-77
2022/01/30 11:21:22;;;;;;;16.47;5.83;;;6.60;99.90;;;;;;4988124;28;20343;-77
2022/01/30 11:23:51;;;;;;;24.50;5.47;;;6.60;99.90;;;;;;4978931;28;20216;-78
2022/01/30 11:26:18;;;;;;;23.10;5.77;;;6.60;99.90;;;;;;4981832;28;20197;-78
2022/01/30 11:28:45;;;;;;;24.67;5.57;;;6.70;99.90;;;;;;4986009;28;20201;-78
2022/01/30 11:31:15;;;;;;;26.93;7.40;;;6.60;99.90;;;;;;4982558;28;20209;-77
2022/01/30 11:33:40;;;;;;;15.90;4.37;;;6.60;99.90;;;;;;5000298;28;20563;-78
2022/01/30 11:36:07;;;;;;;19.63;5.00;;;6.60;99.90;;;;;;4982785;28;20234;-76
2022/01/30 11:38:36;;;;;;;24.33;5.43;;;6.60;99.90;;;;;;4993323;28;20614;-75
2022/01/30 11:41:15;;;;;;;26.37;8.33;;;6.60;99.90;;;;;;4991161;28;20481;-69
2022/01/30 11:44:22;;;;;;;19.17;4.63;;;6.60;99.90;;;;;;4992387;28;20220;-69
2022/01/30 11:46:57;;;;;;;26.73;6.40;;;6.60;99.90;;;;;;4986355;28;20199;-69
2022/01/30 11:49:36;;;;;;;22.47;5.00;;;6.70;99.90;;;;;;4999109;28;20255;-70
2022/01/30 11:52:03;;;;;;;25.90;6.57;;;6.60;99.90;;;;;;4997214;28;20266;-70
2022/01/30 11:54:44;;;;;;;21.77;6.53;;;6.60;99.90;;;;;;4996651;28;20204;-70
2022/01/30 11:57:21;;;;;;;25.60;5.63;;;6.60;99.90;;;;;;4997301;28;20189;-70
2022/01/30 11:59:51;;;;;;;28.33;6.63;;;6.70;99.90;;;;;;4997022;28;20590;-69
2022/01/30 12:02:31;;;;;;;30.30;8.07;;;6.80;99.90;;;;;;4993654;28;20572;-68
2022/01/30 12:05:02;;;;;;;26.03;6.87;;;6.80;99.90;;;;;;4985545;28;20279;-69
2022/01/30 12:07:41;;;;;;;24.00;6.23;;;6.80;99.90;;;;;;4994613;28;20662;-68
2022/01/30 12:10:16;;;;;;;25.87;7.07;;;6.80;99.90;;;;;;4995048;28;20205;-68
2022/01/30 12:12:58;;;;;;;23.37;6.17;;;6.80;99.90;;;;;;4995079;28;20184;-70
2022/01/30 12:15:41;;;;;;;25.47;5.60;;;6.80;99.90;;;;;;4981586;28;20240;-70
2022/01/30 12:18:08;;;;;;;15.40;5.13;;;6.80;99.90;;;;;;4994601;28;20215;-69
2022/01/30 12:21:08;;;;;;;23.47;5.90;;;6.80;99.90;;;;;;4992487;28;20617;-69
2022/01/30 12:23:39;;;;;;;24.73;6.60;;;6.80;99.90;;;;;;4995242;28;20216;-69
2022/01/30 12:26:07;;;;;;;23.80;5.97;;;6.80;99.90;;;;;;4995963;28;20208;-69
2022/01/30 12:28:45;;;;;;;29.80;6.13;;;6.80;99.90;;;;;;4999677;28;20204;-70
2022/01/30 12:31:31;;;;;;;26.43;7.20;;;6.80;99.90;;;;;;4988317;28;20292;-71
2022/01/30 12:34:09;;;;;;;25.33;6.53;;;6.90;99.90;;;;;;4989909;28;20206;-71
2022/01/30 12:36:41;;;;;;;25.17;6.13;;;6.90;99.90;;;;;;4982486;28;20222;-69
2022/01/30 12:39:12;;;;;;;21.50;6.13;;;6.90;99.90;;;;;;4987339;28;20196;-70
2022/01/30 12:41:39;;;;;;;34.87;8.13;;;6.90;99.90;;;;;;4995974;28;20217;-70
2022/01/30 12:44:07;;;;;;;35.40;8.20;;;6.90;99.90;;;;;;4994845;28;20216;-70
2022/01/30 12:46:46;;;;;;;24.97;7.57;;;6.90;99.90;;;;;;4989527;28;20717;-69
2022/01/30 12:49:15;;;;;;;22.23;7.10;;;6.90;99.90;;;;;;4995644;28;20192;-69
2022/01/30 12:51:43;;;;;;;28.27;6.87;;;6.90;99.90;;;;;;4986631;28;20208;-69
2022/01/30 12:54:10;;;;;;;25.23;6.13;;;7.00;99.90;;;;;;4986194;28;20705;-70
2022/01/30 12:56:36;;;;;;;25.20;5.20;;;7.00;99.90;;;;;;4995558;28;20224;-70
2022/01/30 12:59:06;;;;;;;26.73;7.00;;;7.00;99.90;;;;;;4994015;28;20212;-69
2022/01/30 13:01:40;;;;;;;29.17;7.60;;;7.00;99.90;;;;;;4975166;28;20705;-70
2022/01/30 13:04:12;;;;;;;23.47;6.23;;;6.90;99.90;;;;;;4996904;28;20221;-69
2022/01/30 13:06:49;;;;;;;25.73;7.03;;;6.90;99.90;;;;;;4991713;28;20199;-69
2022/01/30 13:09:28;;;;;;;22.53;6.03;;;6.90;99.90;;;;;;5000087;28;20426;-69
2022/01/30 13:11:55;;;;;;;23.60;6.30;;;6.90;99.90;;;;;;4982195;28;20271;-69
2022/01/30 13:14:22;;;;;;;16.83;6.40;;;7.00;99.90;;;;;;4997175;28;20245;-69
2022/01/30 13:16:51;;;;;;;28.90;5.60;;;7.00;99.90;;;;;;4984098;28;20690;-69
2022/01/30 13:19:45;;;;;;;24.17;7.70;;;6.90;99.90;;;;;;4987728;28;20917;-69
2022/01/30 13:22:23;;;;;;;27.27;6.87;;;6.90;99.90;;;;;;4978678;28;20287;-69
2022/01/30 13:24:58;;;;;;;23.43;5.33;;;7.00;99.90;;;;;;4978538;28;20238;-70
2022/01/30 13:27:24;;;;;;;23.53;6.20;;;7.00;99.90;;;;;;4992925;28;20181;-69
2022/01/30 13:29:53;;;;;;;25.00;5.33;;;7.00;99.90;;;;;;4994177;28;20275;-70
2022/01/30 13:32:20;;;;;;;23.23;6.60;;;7.00;99.90;;;;;;4997147;28;20226;-70
2022/01/30 13:34:46;;;;;;;24.20;6.73;;;7.00;99.90;;;;;;4999466;28;20857;-70
2022/01/30 13:37:15;;;;;;;22.00;6.77;;;7.00;99.90;;;;;;4985639;28;20565;-69
2022/01/30 13:39:49;;;;;;;23.30;5.67;;;7.00;99.90;;;;;;4985083;28;20279;-69